createdAt,value
2023-01-27T00:01:18.004Z,2.74
2023-01-27T00:04:49.337Z,2.75
2023-01-27T00:08:38.593Z,2.68
2023-01-27T00:12:18.599Z,2.62
2023-01-27T00:16:07.726Z,2.77
2023-01-27T00:19:47.526Z,2.90
2023-01-27T00:23:16.045Z,2.88
2023-01-27T00:27:04.368Z,2.89
2023-01-27T00:30:53.733Z,2.87
2023-01-27T00:34:42.245Z,2.78
2023-01-27T00:38:12.671Z,2.71
2023-01-27T00:41:36.356Z,2.60
2023-01-27T00:45:08.808Z,2.69
2023-01-27T00:48:56.792Z,2.70
2023-01-27T00:52:46.183Z,2.71
2023-01-27T00:56:26.775Z,2.59
2023-01-27T01:00:09.837Z,2.61
2023-01-27T01:03:58.844Z,2.59
2023-01-27T01:07:40.676Z,2.70
2023-01-27T01:11:29.949Z,2.56
2023-01-27T01:15:10.122Z,2.47
2023-01-27T01:18:51.958Z,2.54
2023-01-27T01:22:14.631Z,2.56
2023-01-27T01:25:56.179Z,2.42
2023-01-27T01:28:59.847Z,2.48
2023-01-27T01:32:40.099Z,2.42
2023-01-27T01:36:29.649Z,2.42
2023-01-27T01:40:18.568Z,2.32
2023-01-27T01:44:08.136Z,2.20
2023-01-27T01:47:52.383Z,2.21
2023-01-27T01:51:26.337Z,2.13
2023-01-27T01:55:03.853Z,2.01
2023-01-27T01:58:33.774Z,2.19
2023-01-27T02:02:16.632Z,2.09
2023-01-27T02:06:11.591Z,2.11
2023-01-27T02:09:46.924Z,2.24
2023-01-27T02:13:13.296Z,2.29
2023-01-27T02:16:55.258Z,2.21
2023-01-27T02:20:50.367Z,2.21
2023-01-27T02:24:41.291Z,2.30
2023-01-27T02:28:05.220Z,2.18
2023-01-27T02:31:41.900Z,2.18
2023-01-27T02:35:22.495Z,2.20
2023-01-27T02:39:04.319Z,2.17
2023-01-27T02:42:45.827Z,2.16
2023-01-27T02:46:19.673Z,2.09
2023-01-27T02:50:01.297Z,2.08
2023-01-27T02:53:44.955Z,2.07
2023-01-27T02:56:57.572Z,1.97
2023-01-27T03:00:46.852Z,1.93
2023-01-27T03:04:18.746Z,1.97
2023-01-27T03:08:09.373Z,1.93
2023-01-27T03:11:57.193Z,1.96
2023-01-27T03:15:28.758Z,2.00
2023-01-27T03:19:18.079Z,2.02
2023-01-27T03:22:39.477Z,2.07
2023-01-27T03:26:28.738Z,2.00
2023-01-27T03:30:17.741Z,1.87
2023-01-27T03:33:20.913Z,1.84
2023-01-27T03:36:36.447Z,1.91
2023-01-27T03:40:09.115Z,1.90
2023-01-27T03:43:56.034Z,2.00
2023-01-27T03:47:45.270Z,1.87
2023-01-27T03:51:09.523Z,1.84
2023-01-27T03:54:43.955Z,1.93
2023-01-27T03:58:06.856Z,2.07
2023-01-27T04:01:25.917Z,2.12
2023-01-27T04:05:03.709Z,2.07
2023-01-27T04:08:45.166Z,2.10
2023-01-27T04:12:23.789Z,2.16
2023-01-27T04:15:53.779Z,2.17
2023-01-27T04:19:32.335Z,2.15
2023-01-27T04:23:21.654Z,2.16
2023-01-27T04:27:06.710Z,2.09
2023-01-27T04:30:37.576Z,2.11
2023-01-27T04:34:01.325Z,2.09
2023-01-27T04:37:50.284Z,2.16
2023-01-27T04:41:18.222Z,2.12
2023-01-27T04:44:58.250Z,2.10
2023-01-27T04:48:34.853Z,2.08
2023-01-27T04:52:18.600Z,2.09
2023-01-27T04:56:06.197Z,2.13
2023-01-27T04:59:36.515Z,2.09
2023-01-27T05:03:24.263Z,2.12
2023-01-27T05:06:52.011Z,2.01
2023-01-27T05:10:32.476Z,2.03
2023-01-27T05:14:14.747Z,2.03
2023-01-27T05:17:49.347Z,2.02
2023-01-27T05:21:39.344Z,2.02
2023-01-27T05:25:00.441Z,2.12
2023-01-27T05:28:39.924Z,2.09
2023-01-27T05:32:22.016Z,2.04
2023-01-27T05:36:09.655Z,2.08
2023-01-27T05:39:54.184Z,2.05
2023-01-27T05:43:27.026Z,1.98
2023-01-27T05:47:10.687Z,2.01
2023-01-27T05:50:59.906Z,1.90
2023-01-27T05:54:43.918Z,1.98
2023-01-27T05:58:09.556Z,2.04
2023-01-27T06:01:51.572Z,2.03
2023-01-27T06:05:41.129Z,1.98
2023-01-27T06:09:30.308Z,1.83
2023-01-27T06:13:12.068Z,1.70
2023-01-27T06:16:53.591Z,1.79
2023-01-27T06:20:24.846Z,1.71
2023-01-27T06:23:50.235Z,1.75
2023-01-27T06:27:39.301Z,1.79
2023-01-27T06:31:20.953Z,1.70
2023-01-27T06:35:10.184Z,1.49
2023-01-27T06:38:59.554Z,1.67
2023-01-27T06:42:39.126Z,1.60
2023-01-27T06:46:11.167Z,1.67
2023-01-27T06:49:53.374Z,1.75
2023-01-27T06:53:42.117Z,1.85
2023-01-27T06:57:31.651Z,1.75
2023-01-27T07:00:54.380Z,1.76
2023-01-27T07:04:42.355Z,1.84
2023-01-27T07:08:25.910Z,1.78
2023-01-27T07:12:09.219Z,1.88
2023-01-27T07:19:58.438Z,1.99
2023-01-27T07:23:30.759Z,2.00
2023-01-27T07:27:11.254Z,2.05
2023-01-27T07:30:38.519Z,1.92
2023-01-27T07:33:42.401Z,1.85
2023-01-27T07:37:20.225Z,1.97
2023-01-27T07:40:59.902Z,2.11
2023-01-27T07:44:39.877Z,2.21
2023-01-27T07:48:22.620Z,1.99
2023-01-27T07:52:11.363Z,1.97
2023-01-27T07:56:00.565Z,2.16
2023-01-27T07:59:49.755Z,2.23
2023-01-27T08:03:38.853Z,2.06
2023-01-27T08:07:19.577Z,2.04
2023-01-27T08:11:09.545Z,1.96
2023-01-27T08:14:58.684Z,2.06
2023-01-27T08:18:41.937Z,1.68
2023-01-27T08:22:31.046Z,1.71
2023-01-27T08:26:19.531Z,1.74
2023-01-27T08:29:56.512Z,2.01
2023-01-27T08:33:31.755Z,2.07
2023-01-27T08:37:04.827Z,2.19
2023-01-27T08:40:44.467Z,2.27
2023-01-27T08:44:15.668Z,2.40
2023-01-27T08:47:57.133Z,2.45
2023-01-27T08:51:46.391Z,2.54
2023-01-27T08:55:34.944Z,2.60
2023-01-27T08:59:02.381Z,2.59
2023-01-27T09:02:46.305Z,2.65
2023-01-27T09:06:35.398Z,2.53
2023-01-27T09:10:27.961Z,2.69
2023-01-27T09:14:17.150Z,2.54
2023-01-27T09:17:58.929Z,2.28
2023-01-27T09:21:48.620Z,2.25
2023-01-27T09:25:38.985Z,2.32
2023-01-27T09:29:05.587Z,2.38
2023-01-27T09:32:49.227Z,2.43
2023-01-27T09:36:30.008Z,2.41
2023-01-27T09:40:11.521Z,2.41
2023-01-27T09:43:49.798Z,2.51
2023-01-27T09:47:43.294Z,2.66
2023-01-27T09:51:15.990Z,2.63
2023-01-27T09:55:10.819Z,2.56
2023-01-27T09:59:18.009Z,2.64
2023-01-27T10:03:22.954Z,2.68
2023-01-27T10:07:27.397Z,2.82
2023-01-27T10:11:29.749Z,2.68
2023-01-27T10:15:33.972Z,2.51
2023-01-27T10:19:42.378Z,2.53
2023-01-27T10:23:31.613Z,2.40
2023-01-27T10:27:28.148Z,2.32
2023-01-27T10:31:07.187Z,2.26
2023-01-27T10:35:05.392Z,2.31
2023-01-27T10:39:15.619Z,2.33
2023-01-27T10:43:38.152Z,2.48
2023-01-27T10:47:28.436Z,2.51
2023-01-27T10:51:20.184Z,2.43
2023-01-27T10:55:15.430Z,2.38
2023-01-27T11:23:40.001Z,2.40
2023-01-27T11:28:08.183Z,2.50
2023-01-27T11:35:41.313Z,2.62
2023-01-27T11:40:11.007Z,2.58
2023-01-27T11:44:37.244Z,2.53
2023-01-27T11:49:08.512Z,2.47
2023-01-27T11:53:38.674Z,2.32
2023-01-27T11:58:00.217Z,2.26
2023-01-27T12:02:50.538Z,2.30
2023-01-27T12:07:32.312Z,2.30
2023-01-27T12:16:28.987Z,2.25
2023-01-27T12:21:04.344Z,2.37
2023-01-27T12:25:35.525Z,2.48
2023-01-27T12:30:14.160Z,2.57
2023-01-27T12:34:44.448Z,2.52
2023-01-27T12:39:19.718Z,2.51
2023-01-27T12:43:51.925Z,2.45
2023-01-27T12:48:23.461Z,2.45
2023-01-27T12:52:56.908Z,2.37
2023-01-27T12:57:27.872Z,2.47
2023-01-27T13:06:58.379Z,2.47
2023-01-27T13:11:03.972Z,2.38
2023-01-27T13:14:51.750Z,2.41
2023-01-27T13:18:39.545Z,2.39
2023-01-27T13:22:30.223Z,2.21
2023-01-27T13:26:27.333Z,2.30
2023-01-27T13:30:03.704Z,2.40
2023-01-27T13:33:33.564Z,2.29
2023-01-27T13:37:14.100Z,2.34
2023-01-27T13:41:02.556Z,2.46
2023-01-27T13:44:54.675Z,2.26
2023-01-27T13:48:45.586Z,2.28
2023-01-27T13:52:33.302Z,2.45
2023-01-27T13:56:30.360Z,2.37
2023-01-27T14:00:26.871Z,2.38
2023-01-27T14:04:21.662Z,2.43
2023-01-27T14:08:15.159Z,2.50
2023-01-27T14:12:06.968Z,2.49
2023-01-27T14:16:00.941Z,2.61
2023-01-27T14:20:00.827Z,2.63
2023-01-27T14:23:57.607Z,2.68
2023-01-27T14:27:40.216Z,2.73
2023-01-27T14:31:33.548Z,2.77
2023-01-27T14:40:04.776Z,2.63
2023-01-27T14:43:58.742Z,2.54
2023-01-27T14:48:06.056Z,2.55
2023-01-27T14:51:48.780Z,2.59
2023-01-27T14:55:43.086Z,2.56
2023-01-27T14:59:49.059Z,2.57
2023-01-27T15:03:42.844Z,2.41
2023-01-27T15:07:28.383Z,2.34
2023-01-27T15:11:20.475Z,2.32
2023-01-27T15:15:08.124Z,2.37
2023-01-27T15:18:52.990Z,2.40
2023-01-27T15:23:02.253Z,2.30
2023-01-27T15:26:51.950Z,2.27
2023-01-27T15:30:49.344Z,2.30
2023-01-27T15:34:30.603Z,2.28
2023-01-27T15:38:36.917Z,2.31
2023-01-27T15:42:16.339Z,2.32
2023-01-27T15:46:19.582Z,2.20
2023-01-27T15:49:39.536Z,2.40
2023-01-27T15:53:41.815Z,2.45
2023-01-27T15:57:16.254Z,2.45
2023-01-27T16:01:01.477Z,2.46
2023-01-27T16:04:49.701Z,2.44
2023-01-27T16:08:15.540Z,2.46
2023-01-27T16:12:02.988Z,2.43
2023-01-27T16:15:49.848Z,2.48
2023-01-27T16:19:39.660Z,2.56
2023-01-27T16:22:59.573Z,2.59
2023-01-27T16:26:37.457Z,2.66
2023-01-27T16:30:27.262Z,2.57
2023-01-27T16:34:24.996Z,2.54
2023-01-27T16:38:23.822Z,2.59
2023-01-27T16:42:15.329Z,2.62
2023-01-27T16:45:59.023Z,2.59
2023-01-27T16:49:56.841Z,2.48
2023-01-27T16:53:40.149Z,2.53
2023-01-27T16:57:34.136Z,2.55
2023-01-27T17:01:20.293Z,2.50
2023-01-27T17:04:58.860Z,2.49
2023-01-27T17:08:44.116Z,2.48
2023-01-27T17:12:15.996Z,2.44
2023-01-27T17:15:55.112Z,2.37
2023-01-27T17:18:56.787Z,2.42
2023-01-27T17:22:23.433Z,2.46
2023-01-27T17:25:55.916Z,2.42
2023-01-27T17:29:24.683Z,2.39
2023-01-27T17:33:14.228Z,2.35
2023-01-27T17:36:40.647Z,2.31
2023-01-27T17:39:49.755Z,2.39
2023-01-27T17:43:18.990Z,2.32
2023-01-27T17:46:57.377Z,2.30
2023-01-27T17:50:13.912Z,2.28
2023-01-27T17:53:51.020Z,2.12
2023-01-27T17:57:32.471Z,2.00
2023-01-27T18:01:25.720Z,1.98
2023-01-27T18:05:02.419Z,2.00
2023-01-27T18:08:22.899Z,2.00
2023-01-27T18:11:59.022Z,1.99
2023-01-27T18:15:10.306Z,2.02
2023-01-27T18:18:19.255Z,1.99
2023-01-27T18:21:34.970Z,1.81
2023-01-27T18:24:38.518Z,1.68
2023-01-27T18:27:53.707Z,1.71
2023-01-27T18:30:56.842Z,1.74
2023-01-27T18:33:50.881Z,1.75
2023-01-27T18:37:24.287Z,1.76
2023-01-27T18:41:00.634Z,1.75
2023-01-27T18:43:53.363Z,1.72
2023-01-27T18:47:12.194Z,1.70
2023-01-27T18:50:38.589Z,1.70
2023-01-27T18:54:05.851Z,1.63
2023-01-27T18:57:31.763Z,1.60
2023-01-27T19:00:37.590Z,1.58
2023-01-27T19:04:11.091Z,1.61
2023-01-27T19:07:33.923Z,1.54
2023-01-27T19:10:52.959Z,1.51
2023-01-27T19:14:04.487Z,1.30
2023-01-27T19:17:21.440Z,1.35
2023-01-27T19:20:35.372Z,1.36
2023-01-27T19:23:34.831Z,1.26
2023-01-27T19:26:56.615Z,1.27
2023-01-27T19:29:59.557Z,1.23
2023-01-27T19:32:48.530Z,1.26
2023-01-27T19:36:13.188Z,1.26
2023-01-27T19:40:13.583Z,1.29
2023-01-27T19:43:52.908Z,1.28
2023-01-27T19:47:43.887Z,1.28
2023-01-27T19:51:16.804Z,1.26
2023-01-27T19:54:49.271Z,1.30
2023-01-27T19:57:58.497Z,1.18
2023-01-27T20:00:59.969Z,1.18
2023-01-27T20:04:50.030Z,1.14
2023-01-27T20:08:24.106Z,1.06
2023-01-27T20:12:16.190Z,0.95
2023-01-27T20:15:55.608Z,0.98
2023-01-27T20:19:23.247Z,0.97
2023-01-27T20:22:14.569Z,1.06
2023-01-27T20:26:00.331Z,1.03
2023-01-27T20:29:35.773Z,0.99
2023-01-27T20:32:56.220Z,0.99
2023-01-27T20:36:24.306Z,0.90
2023-01-27T20:39:31.252Z,0.88
2023-01-27T20:42:50.906Z,0.89
2023-01-27T20:46:26.721Z,0.90
2023-01-27T20:49:45.045Z,0.79
2023-01-27T20:53:29.761Z,0.76
2023-01-27T20:57:17.905Z,0.83
2023-01-27T21:00:27.923Z,0.82
2023-01-27T21:04:00.828Z,0.76
2023-01-27T21:07:40.305Z,0.73
2023-01-27T21:11:30.296Z,0.70
2023-01-27T21:15:16.997Z,0.74
2023-01-27T21:19:02.440Z,0.84
2023-01-27T21:22:48.174Z,0.85
2023-01-27T21:26:36.822Z,0.85
2023-01-27T21:30:18.778Z,0.86
2023-01-27T21:34:10.060Z,0.71
2023-01-27T21:37:46.725Z,0.63
2023-01-27T21:41:46.966Z,0.59
2023-01-27T21:45:32.922Z,0.58
2023-01-27T21:49:05.552Z,0.61
2023-01-27T21:52:34.551Z,0.63
2023-01-27T21:56:13.436Z,0.52
2023-01-27T21:59:57.921Z,0.49
2023-01-27T22:03:46.185Z,0.50
2023-01-27T22:07:34.581Z,0.51
2023-01-27T22:11:21.315Z,0.49
2023-01-27T22:15:11.903Z,0.43
2023-01-27T22:19:03.671Z,0.42
2023-01-27T22:22:51.828Z,0.39
2023-01-27T22:26:43.098Z,0.47
2023-01-27T22:30:31.485Z,0.43
2023-01-27T22:34:19.506Z,0.39
2023-01-27T22:38:07.395Z,0.36
2023-01-27T22:41:55.593Z,0.40
2023-01-27T22:45:43.763Z,0.36
2023-01-27T22:49:32.793Z,0.44
2023-01-27T22:53:21.502Z,0.44
2023-01-27T22:57:09.573Z,0.36
2023-01-27T23:00:59.288Z,0.43
2023-01-27T23:04:47.339Z,0.52
2023-01-27T23:08:40.500Z,0.49
2023-01-27T23:12:28.518Z,0.55
2023-01-27T23:16:16.274Z,0.50
2023-01-27T23:19:58.500Z,0.62
2023-01-27T23:23:36.075Z,0.56
2023-01-27T23:27:23.074Z,0.55
2023-01-27T23:31:04.279Z,0.45
2023-01-27T23:34:52.236Z,0.31
2023-01-27T23:38:39.596Z,0.38
2023-01-27T23:42:27.559Z,0.44
2023-01-27T23:46:16.470Z,0.42
2023-01-27T23:50:05.609Z,0.50
2023-01-27T23:53:53.444Z,0.46
2023-01-27T23:57:41.067Z,0.42
